createdAt,value
2017-08-19T00:00:21.241Z,1006.63
2017-08-19T00:01:21.223Z,1006.63
2017-08-19T00:02:21.261Z,1006.65
2017-08-19T00:03:21.192Z,1006.65
2017-08-19T00:04:21.171Z,1006.68
2017-08-19T00:05:21.161Z,1006.68
2017-08-19T00:06:21.142Z,1006.67
2017-08-19T00:07:21.130Z,1006.69
2017-08-19T00:08:21.102Z,1006.63
2017-08-19T00:09:21.084Z,1006.69
2017-08-19T00:10:21.071Z,1006.66
2017-08-19T00:11:21.050Z,1006.75
2017-08-19T00:12:21.084Z,1006.69
2017-08-19T00:13:21.016Z,1006.71
2017-08-19T00:14:21.001Z,1006.71
2017-08-19T00:15:20.982Z,1006.66
2017-08-19T00:16:20.959Z,1006.7
2017-08-19T00:17:20.951Z,1006.72
2017-08-19T00:18:20.926Z,1006.73
2017-08-19T00:19:20.909Z,1006.76
2017-08-19T00:20:20.889Z,1006.75
2017-08-19T00:21:20.869Z,1006.72
2017-08-19T00:22:20.908Z,1006.73
2017-08-19T00:23:20.835Z,1006.74
2017-08-19T00:24:20.823Z,1006.75
2017-08-19T00:25:20.799Z,1006.79
2017-08-19T00:26:20.783Z,1006.76
2017-08-19T00:27:20.781Z,1006.69
2017-08-19T00:28:20.744Z,1006.73
2017-08-19T00:29:20.728Z,1006.74
2017-08-19T00:30:20.720Z,1006.74
2017-08-19T00:31:20.701Z,1006.77
2017-08-19T00:32:20.679Z,1006.8
2017-08-19T00:33:20.660Z,1006.77
2017-08-19T00:34:20.647Z,1006.79
2017-08-19T00:35:20.633Z,1006.78
2017-08-19T00:36:20.609Z,1006.76
2017-08-19T00:37:20.602Z,1006.75
2017-08-19T00:38:20.582Z,1006.83
2017-08-19T00:39:20.551Z,1006.82
2017-08-19T00:40:20.541Z,1006.84
2017-08-19T00:41:20.520Z,1006.85
2017-08-19T00:42:20.500Z,1006.88
2017-08-19T00:43:20.480Z,1006.84
2017-08-19T00:44:20.469Z,1006.86
2017-08-19T00:45:20.447Z,1006.93
2017-08-19T00:46:20.430Z,1006.96
2017-08-19T00:47:20.411Z,1006.94
2017-08-19T00:48:20.399Z,1006.96
2017-08-19T00:49:20.382Z,1006.97
2017-08-19T00:50:20.360Z,1007
2017-08-19T00:51:20.342Z,1007.02
2017-08-19T00:52:20.324Z,1006.97
2017-08-19T00:53:20.310Z,1007
2017-08-19T00:54:20.293Z,1006.99
2017-08-19T00:55:20.275Z,1007
2017-08-19T00:56:20.249Z,1007.01
2017-08-19T00:57:20.233Z,1007.02
2017-08-19T00:58:20.217Z,1007.06
2017-08-19T00:59:20.198Z,1007.04
2017-08-19T01:00:20.181Z,1007.04
2017-08-19T01:01:20.159Z,1007.08
2017-08-19T01:02:20.142Z,1007.07
2017-08-19T01:03:20.130Z,1007.07
2017-08-19T01:04:20.110Z,1007.06
2017-08-19T01:05:20.092Z,1007.05
2017-08-19T01:06:20.072Z,1007.07
2017-08-19T01:07:20.062Z,1007.09
2017-08-19T01:08:20.040Z,1007.11
2017-08-19T01:09:20.021Z,1007.12
2017-08-19T01:10:20.002Z,1007.09
2017-08-19T01:11:19.989Z,1007.13
2017-08-19T01:12:19.970Z,1007.06
2017-08-19T01:13:19.949Z,1007.08
2017-08-19T01:14:19.931Z,1007.1
2017-08-19T01:15:19.916Z,1007.07
2017-08-19T01:16:19.898Z,1007.09
2017-08-19T01:17:19.881Z,1007.04
2017-08-19T01:18:19.860Z,1007.05
2017-08-19T01:19:19.845Z,1007.06
2017-08-19T01:20:19.830Z,1007.03
2017-08-19T01:21:19.812Z,1007.07
2017-08-19T01:22:19.788Z,1007.07
2017-08-19T01:23:19.771Z,1007.1
2017-08-19T01:24:19.759Z,1007.11
2017-08-19T01:25:19.739Z,1007.13
2017-08-19T01:26:19.720Z,1007.16
2017-08-19T01:27:19.698Z,1007.16
2017-08-19T01:28:19.681Z,1007.2
2017-08-19T01:29:19.663Z,1007.19
2017-08-19T01:30:19.646Z,1007.24
2017-08-19T01:31:19.628Z,1007.22
2017-08-19T01:32:19.610Z,1007.2
2017-08-19T01:33:19.593Z,1007.25
2017-08-19T01:34:19.581Z,1007.23
2017-08-19T01:35:19.557Z,1007.25
2017-08-19T01:36:19.538Z,1007.22
2017-08-19T01:37:19.522Z,1007.21
2017-08-19T01:38:19.505Z,1007.24
2017-08-19T01:39:19.488Z,1007.21
2017-08-19T01:40:19.470Z,1007.21
2017-08-19T01:41:19.450Z,1007.19
2017-08-19T01:42:19.431Z,1007.18
2017-08-19T01:43:19.417Z,1007.24
2017-08-19T01:44:19.399Z,1007.24
2017-08-19T01:45:19.378Z,1007.22
2017-08-19T01:46:19.362Z,1007.18
2017-08-19T01:47:19.349Z,1007.19
2017-08-19T01:48:19.332Z,1007.18
2017-08-19T01:49:19.313Z,1007.17
2017-08-19T01:50:19.291Z,1007.2
2017-08-19T01:51:19.271Z,1007.18
2017-08-19T01:52:19.251Z,1007.17
2017-08-19T01:53:19.238Z,1007.19
2017-08-19T01:54:19.223Z,1007.18
2017-08-19T01:55:19.201Z,1007.15
2017-08-19T01:56:19.194Z,1007.19
2017-08-19T01:57:19.162Z,1007.23
2017-08-19T01:58:19.154Z,1007.22
2017-08-19T01:59:19.126Z,1007.26
2017-08-19T02:00:19.112Z,1007.27
2017-08-19T02:01:19.099Z,1007.23
2017-08-19T02:02:19.074Z,1007.22
2017-08-19T02:03:19.057Z,1007.27
2017-08-19T02:04:19.038Z,1007.24
2017-08-19T02:05:19.021Z,1007.21
2017-08-19T02:06:19.003Z,1007.21
2017-08-19T02:07:18.989Z,1007.24
2017-08-19T02:08:18.977Z,1007.23
2017-08-19T02:09:18.949Z,1007.22
2017-08-19T02:10:18.933Z,1007.23
2017-08-19T02:11:18.914Z,1007.22
2017-08-19T02:12:18.900Z,1007.21
2017-08-19T02:13:18.879Z,1007.17
2017-08-19T02:14:18.858Z,1007.16
2017-08-19T02:15:18.843Z,1007.15
2017-08-19T02:16:18.829Z,1007.13
2017-08-19T02:17:18.812Z,1007.14
2017-08-19T02:18:18.786Z,1007.2
2017-08-19T02:19:18.768Z,1007.21
2017-08-19T02:20:18.751Z,1007.16
2017-08-19T02:21:18.735Z,1007.19
2017-08-19T02:22:18.720Z,1007.2
2017-08-19T02:23:18.696Z,1007.16
2017-08-19T02:24:18.680Z,1007.18
2017-08-19T02:25:18.661Z,1007.13
2017-08-19T02:26:18.643Z,1007.17
2017-08-19T02:27:18.624Z,1007.16
2017-08-19T02:28:18.610Z,1007.18
2017-08-19T02:29:18.808Z,1007.1
2017-08-19T02:30:18.570Z,1007.13
2017-08-19T02:31:18.568Z,1007.09
2017-08-19T02:32:18.542Z,1007.11
2017-08-19T02:33:18.521Z,1007.14
2017-08-19T02:34:18.500Z,1007.13
2017-08-19T02:35:18.483Z,1007.11
2017-08-19T02:36:18.468Z,1007.15
2017-08-19T02:37:18.447Z,1007.15
2017-08-19T02:38:18.428Z,1007.11
2017-08-19T02:39:18.410Z,1007.12
2017-08-19T02:40:18.391Z,1007.14
2017-08-19T02:41:18.372Z,1007.14
2017-08-19T02:42:18.359Z,1007.11
2017-08-19T02:43:18.350Z,1007.12
2017-08-19T02:44:18.321Z,1007.13
2017-08-19T02:45:18.304Z,1007.14
2017-08-19T02:46:18.288Z,1007.11
2017-08-19T02:47:18.268Z,1007.14
2017-08-19T02:48:18.247Z,1007.06
2017-08-19T02:49:18.233Z,1007.13
2017-08-19T02:50:18.215Z,1007.1
2017-08-19T02:51:18.205Z,1007.08
2017-08-19T02:52:18.177Z,1007.13
2017-08-19T02:53:18.159Z,1007.12
2017-08-19T02:54:18.139Z,1007.14
2017-08-19T02:55:18.131Z,1007.11
2017-08-19T02:56:18.107Z,1007.18
2017-08-19T02:57:18.091Z,1007.16
2017-08-19T02:58:18.073Z,1007.17
2017-08-19T02:59:18.051Z,1007.18
2017-08-19T03:00:18.033Z,1007.16
2017-08-19T03:01:18.019Z,1007.18
2017-08-19T03:02:18.001Z,1007.18
2017-08-19T03:03:17.984Z,1007.16
2017-08-19T03:04:17.961Z,1007.19
2017-08-19T03:05:17.940Z,1007.18
2017-08-19T03:06:17.925Z,1007.18
2017-08-19T03:07:17.907Z,1007.16
2017-08-19T03:08:17.888Z,1007.17
2017-08-19T03:09:17.872Z,1007.15
2017-08-19T03:10:17.851Z,1007.12
2017-08-19T03:11:17.842Z,1007.22
2017-08-19T03:12:17.816Z,1007.16
2017-08-19T03:13:17.799Z,1007.18
2017-08-19T03:14:17.782Z,1007.17
2017-08-19T03:15:17.760Z,1007.16
2017-08-19T03:16:17.752Z,1007.17
2017-08-19T03:17:17.727Z,1007.19
2017-08-19T03:18:17.712Z,1007.19
2017-08-19T03:19:17.693Z,1007.17
2017-08-19T03:20:17.672Z,1007.17
2017-08-19T03:21:17.654Z,1007.2
2017-08-19T03:22:17.645Z,1007.21
2017-08-19T03:23:17.624Z,1007.2
2017-08-19T03:24:17.603Z,1007.24
2017-08-19T03:25:17.582Z,1007.25
2017-08-19T03:26:17.562Z,1007.27
2017-08-19T03:27:17.543Z,1007.26
2017-08-19T03:28:17.529Z,1007.17
2017-08-19T03:29:17.516Z,1007.22
2017-08-19T03:30:17.487Z,1007.27
2017-08-19T03:31:17.471Z,1007.27
2017-08-19T03:32:17.452Z,1007.24
2017-08-19T03:33:17.435Z,1007.27
2017-08-19T03:34:17.423Z,1007.24
2017-08-19T03:35:17.401Z,1007.25
2017-08-19T03:36:17.383Z,1007.28
2017-08-19T03:37:17.359Z,1007.27
2017-08-19T03:38:17.342Z,1007.25
2017-08-19T03:39:17.327Z,1007.26
2017-08-19T03:40:17.313Z,1007.27
2017-08-19T03:41:17.292Z,1007.27
2017-08-19T03:42:17.274Z,1007.27
2017-08-19T03:43:17.253Z,1007.27
2017-08-19T03:44:17.240Z,1007.29
2017-08-19T03:45:17.216Z,1007.28
2017-08-19T03:46:17.203Z,1007.28
2017-08-19T03:47:17.182Z,1007.26
2017-08-19T03:48:17.162Z,1007.32
2017-08-19T03:49:17.142Z,1007.29
2017-08-19T03:50:17.131Z,1007.32
2017-08-19T03:51:17.109Z,1007.34
2017-08-19T03:52:17.096Z,1007.35
2017-08-19T03:53:17.074Z,1007.36
2017-08-19T03:54:17.052Z,1007.4
2017-08-19T03:55:17.033Z,1007.42
2017-08-19T03:56:17.023Z,1007.42
2017-08-19T03:57:17.006Z,1007.44
2017-08-19T03:58:16.980Z,1007.4
2017-08-19T03:59:16.965Z,1007.4
2017-08-19T04:00:16.943Z,1007.4
2017-08-19T04:01:16.922Z,1007.41
2017-08-19T04:02:16.912Z,1007.42
2017-08-19T04:03:16.886Z,1007.4
2017-08-19T04:04:16.873Z,1007.37
2017-08-19T04:05:16.851Z,1007.42
2017-08-19T04:06:16.833Z,1007.41
2017-08-19T04:07:16.823Z,1007.4
2017-08-19T04:08:16.796Z,1007.43
2017-08-19T04:09:16.774Z,1007.4
2017-08-19T04:10:16.761Z,1007.39
2017-08-19T04:11:16.750Z,1007.34
2017-08-19T04:12:16.722Z,1007.32
2017-08-19T04:13:16.711Z,1007.33
2017-08-19T04:14:16.687Z,1007.33
2017-08-19T04:15:16.766Z,1007.34
2017-08-19T04:16:16.650Z,1007.38
2017-08-19T04:17:16.644Z,1007.3
2017-08-19T04:18:16.615Z,1007.35
2017-08-19T04:19:16.603Z,1007.33
2017-08-19T04:20:16.581Z,1007.33
2017-08-19T04:21:16.562Z,1007.36
2017-08-19T04:22:16.539Z,1007.34
2017-08-19T04:23:16.522Z,1007.39
2017-08-19T04:24:16.502Z,1007.36
2017-08-19T04:25:16.483Z,1007.36
2017-08-19T04:26:16.469Z,1007.34
2017-08-19T04:27:16.446Z,1007.33
2017-08-19T04:28:16.433Z,1007.3
2017-08-19T04:29:16.410Z,1007.31
2017-08-19T04:30:16.392Z,1007.25
2017-08-19T04:31:16.372Z,1007.29
2017-08-19T04:32:16.354Z,1007.31
2017-08-19T04:33:16.343Z,1007.33
2017-08-19T04:34:16.326Z,1007.35
2017-08-19T04:35:16.301Z,1007.37
2017-08-19T04:36:16.284Z,1007.34
2017-08-19T04:37:16.263Z,1007.34
2017-08-19T04:38:16.244Z,1007.38
2017-08-19T04:39:16.226Z,1007.34
2017-08-19T04:40:16.213Z,1007.36
2017-08-19T04:41:16.197Z,1007.4
2017-08-19T04:42:16.174Z,1007.42
2017-08-19T04:43:16.151Z,1007.38
2017-08-19T04:44:16.134Z,1007.42
2017-08-19T04:45:16.120Z,1007.45
2017-08-19T04:46:16.095Z,1007.47
2017-08-19T04:47:16.083Z,1007.47
2017-08-19T04:48:16.062Z,1007.45
2017-08-19T04:49:16.040Z,1007.43
2017-08-19T04:50:16.027Z,1007.49
2017-08-19T04:51:16.005Z,1007.46
2017-08-19T04:52:15.995Z,1007.5
2017-08-19T04:53:15.975Z,1007.53
2017-08-19T04:54:15.954Z,1007.56
2017-08-19T04:55:15.935Z,1007.58
2017-08-19T04:56:15.911Z,1007.54
2017-08-19T04:57:15.905Z,1007.55
2017-08-19T04:58:15.876Z,1007.58
2017-08-19T04:59:15.863Z,1007.56
2017-08-19T05:00:15.844Z,1007.56
2017-08-19T05:01:15.825Z,1007.59
2017-08-19T05:02:15.815Z,1007.58
2017-08-19T05:03:15.792Z,1007.65
2017-08-19T05:04:15.773Z,1007.58
2017-08-19T05:05:15.753Z,1007.62
2017-08-19T05:06:15.734Z,1007.62
2017-08-19T05:07:15.716Z,1007.63
2017-08-19T05:08:15.704Z,1007.67
2017-08-19T05:09:15.690Z,1007.66
2017-08-19T05:10:15.657Z,1007.65
2017-08-19T05:11:15.642Z,1007.67
2017-08-19T05:12:15.623Z,1007.68
2017-08-19T05:13:15.609Z,1007.67
2017-08-19T05:14:15.585Z,1007.65
2017-08-19T05:15:15.577Z,1007.68
2017-08-19T05:16:15.551Z,1007.7
2017-08-19T05:17:15.533Z,1007.71
2017-08-19T05:18:15.512Z,1007.7
2017-08-19T05:19:15.494Z,1007.7
2017-08-19T05:20:15.483Z,1007.79
2017-08-19T05:21:15.462Z,1007.79
2017-08-19T05:22:15.437Z,1007.76
2017-08-19T05:23:15.425Z,1007.75
2017-08-19T05:24:15.400Z,1007.79
2017-08-19T05:25:15.438Z,1007.82
2017-08-19T05:26:15.373Z,1007.82
2017-08-19T05:27:15.453Z,1007.86
2017-08-19T05:28:15.347Z,1007.85
2017-08-19T05:29:15.313Z,1007.84
2017-08-19T05:30:15.292Z,1007.79
2017-08-19T05:31:15.283Z,1007.82
2017-08-19T05:32:15.253Z,1007.81
2017-08-19T05:33:15.349Z,1007.8
2017-08-19T05:34:15.244Z,1007.8
2017-08-19T05:35:15.204Z,1007.89
2017-08-19T05:36:15.188Z,1007.82
2017-08-19T05:37:15.271Z,1007.83
2017-08-19T05:38:15.152Z,1007.85
2017-08-19T05:39:15.190Z,1007.81
2017-08-19T05:40:15.112Z,1007.88
2017-08-19T05:41:15.195Z,1007.82
2017-08-19T05:42:15.085Z,1007.82
2017-08-19T05:43:15.157Z,1007.85
2017-08-19T05:44:15.041Z,1007.83
2017-08-19T05:45:15.031Z,1007.89
2017-08-19T05:46:15.000Z,1007.87
2017-08-19T05:47:14.993Z,1007.88
2017-08-19T05:48:14.968Z,1007.9
2017-08-19T05:49:15.053Z,1007.9
2017-08-19T05:50:14.934Z,1007.92
2017-08-19T05:51:14.916Z,1007.87
2017-08-19T05:52:14.893Z,1007.89
2017-08-19T05:53:14.882Z,1007.83
2017-08-19T05:54:14.862Z,1007.81
2017-08-19T05:55:14.840Z,1007.78
2017-08-19T05:56:14.830Z,1007.73
2017-08-19T05:57:14.805Z,1007.72
2017-08-19T05:58:14.791Z,1007.68
2017-08-19T05:59:14.771Z,1007.76
2017-08-19T06:00:14.753Z,1007.73
2017-08-19T06:01:14.739Z,1007.72
2017-08-19T06:02:14.721Z,1007.69
2017-08-19T06:03:14.700Z,1007.67
2017-08-19T06:04:14.682Z,1007.62
2017-08-19T06:05:14.666Z,1007.64
2017-08-19T06:06:14.647Z,1007.59
2017-08-19T06:07:14.651Z,1007.6
2017-08-19T06:08:14.609Z,1007.59
2017-08-19T06:09:14.591Z,1007.59
2017-08-19T06:10:14.573Z,1007.63
2017-08-19T06:11:14.571Z,1007.63
2017-08-19T06:12:14.541Z,1007.57
2017-08-19T06:13:14.521Z,1007.61
2017-08-19T06:14:14.502Z,1007.56
2017-08-19T06:15:14.489Z,1007.51
2017-08-19T06:16:14.473Z,1007.54
2017-08-19T06:17:14.450Z,1007.57
2017-08-19T06:18:14.430Z,1007.64
2017-08-19T06:19:14.409Z,1007.59
2017-08-19T06:20:14.402Z,1007.68
2017-08-19T06:21:14.379Z,1007.55
2017-08-19T06:22:14.362Z,1007.7
2017-08-19T06:23:14.341Z,1007.68
2017-08-19T06:24:14.331Z,1007.62
2017-08-19T06:25:14.307Z,1007.66
2017-08-19T06:26:14.287Z,1007.65
2017-08-19T06:27:14.272Z,1007.69
2017-08-19T06:28:14.258Z,1007.74
2017-08-19T06:29:14.236Z,1007.77
2017-08-19T06:30:14.216Z,1007.77
2017-08-19T06:31:14.200Z,1007.78
2017-08-19T06:32:14.187Z,1007.79
2017-08-19T06:33:14.170Z,1007.82
2017-08-19T06:34:14.147Z,1007.89
2017-08-19T06:35:14.131Z,1007.87
2017-08-19T06:36:14.118Z,1007.96
2017-08-19T06:37:14.093Z,1008.03
2017-08-19T06:38:14.083Z,1007.93
2017-08-19T06:39:14.066Z,1008.01
2017-08-19T06:40:14.048Z,1007.96
2017-08-19T06:41:14.032Z,1007.94
2017-08-19T06:42:14.009Z,1007.94
2017-08-19T06:43:13.991Z,1007.91
2017-08-19T06:44:13.974Z,1007.87
2017-08-19T06:45:13.954Z,1007.95
2017-08-19T06:46:13.940Z,1007.93
2017-08-19T06:47:13.920Z,1007.99
2017-08-19T06:48:13.904Z,1008.02
2017-08-19T06:49:13.888Z,1008.02
2017-08-19T06:50:13.870Z,1008
2017-08-19T06:51:13.857Z,1007.96
2017-08-19T06:52:13.835Z,1008.01
2017-08-19T06:53:13.818Z,1008.02
2017-08-19T06:54:13.802Z,1008.05
2017-08-19T06:55:13.787Z,1008.08
2017-08-19T06:56:13.765Z,1008.14
2017-08-19T06:57:13.753Z,1008.08
2017-08-19T06:58:13.741Z,1008.02
2017-08-19T06:59:13.719Z,1008.08
2017-08-19T07:00:13.705Z,1008.03
2017-08-19T07:01:13.687Z,1008.03
2017-08-19T07:02:13.673Z,1007.97
2017-08-19T07:03:13.651Z,1007.99
2017-08-19T07:04:13.637Z,1008.06
2017-08-19T07:05:13.623Z,1008.01
2017-08-19T07:06:13.602Z,1008.01
2017-08-19T07:07:13.588Z,1008.07
2017-08-19T07:08:13.576Z,1007.95
2017-08-19T07:09:13.557Z,1008.06
2017-08-19T07:10:13.540Z,1008
2017-08-19T07:11:13.522Z,1008.04
2017-08-19T07:12:13.511Z,1007.98
2017-08-19T07:13:13.488Z,1008.04
2017-08-19T07:14:13.474Z,1007.98
2017-08-19T07:15:13.457Z,1007.97
2017-08-19T07:16:13.439Z,1007.93
2017-08-19T07:17:13.427Z,1007.96
2017-08-19T07:18:13.409Z,1007.95
2017-08-19T07:19:13.388Z,1007.96
2017-08-19T07:20:13.377Z,1008.22
2017-08-19T07:21:13.371Z,1007.98
2017-08-19T07:22:13.350Z,1007.97
2017-08-19T07:23:13.328Z,1008.1
2017-08-19T07:24:13.310Z,1007.96
2017-08-19T07:25:13.299Z,1007.97
2017-08-19T07:26:13.279Z,1007.97
2017-08-19T07:27:13.268Z,1007.98
2017-08-19T07:28:13.251Z,1007.97
2017-08-19T07:29:13.232Z,1007.95
2017-08-19T07:30:13.219Z,1008.01
2017-08-19T07:31:13.209Z,1007.96
2017-08-19T07:32:13.189Z,1007.98
2017-08-19T07:33:13.169Z,1007.94
2017-08-19T07:34:13.159Z,1008
2017-08-19T07:35:13.140Z,1007.99
2017-08-19T07:36:13.132Z,1008.04
2017-08-19T07:37:13.107Z,1008.02
2017-08-19T07:38:13.102Z,1008.12
2017-08-19T07:39:13.081Z,1007.99
2017-08-19T07:40:13.063Z,1008.1
2017-08-19T07:41:13.048Z,1008.05
2017-08-19T07:42:13.027Z,1008.1
2017-08-19T07:43:13.011Z,1008.08
2017-08-19T07:44:12.998Z,1008.12
2017-08-19T07:45:12.978Z,1008.02
2017-08-19T07:46:12.972Z,1008.09
2017-08-19T07:47:12.945Z,1008.25
2017-08-19T07:48:12.927Z,1008.14
2017-08-19T07:49:12.914Z,1008.16
2017-08-19T07:50:12.899Z,1008.17
2017-08-19T07:51:12.877Z,1008.24
2017-08-19T07:52:12.868Z,1008.18
2017-08-19T07:53:12.847Z,1008.17
2017-08-19T07:54:12.829Z,1008.08
2017-08-19T07:55:12.819Z,1008.15
2017-08-19T07:56:12.799Z,1008.12
2017-08-19T07:57:12.787Z,1008.06
2017-08-19T07:58:12.769Z,1008.25
2017-08-19T07:59:12.751Z,1008.24
2017-08-19T08:00:12.732Z,1008.12
2017-08-19T08:01:12.711Z,1008.25
2017-08-19T08:02:12.700Z,1008.1
2017-08-19T08:03:12.689Z,1008.16
2017-08-19T08:04:12.680Z,1008.12
2017-08-19T08:05:12.658Z,1008.11
2017-08-19T08:06:12.641Z,1008.17
2017-08-19T08:07:12.623Z,1008.12
2017-08-19T08:08:12.609Z,1008.21
2017-08-19T08:09:12.601Z,1008.26
2017-08-19T08:10:12.588Z,1008.3
2017-08-19T08:11:12.560Z,1008.24
2017-08-19T08:12:12.550Z,1008.29
2017-08-19T08:13:12.534Z,1008.27
2017-08-19T08:14:12.518Z,1008.28
2017-08-19T08:15:12.522Z,1008.3
2017-08-19T08:16:12.486Z,1008.39
2017-08-19T08:17:12.474Z,1008.37
2017-08-19T08:18:12.459Z,1008.27
2017-08-19T08:19:12.443Z,1008.31
2017-08-19T08:20:12.433Z,1008.42
2017-08-19T08:21:12.410Z,1008.41
2017-08-19T08:22:12.399Z,1008.39
2017-08-19T08:23:12.380Z,1008.47
2017-08-19T08:24:12.366Z,1008.43
2017-08-19T08:25:12.350Z,1008.42
2017-08-19T08:26:12.940Z,1008.52
2017-08-19T08:27:12.322Z,1008.52
2017-08-19T08:28:12.312Z,1008.42
2017-08-19T08:29:12.298Z,1008.45
2017-08-19T08:30:12.280Z,1008.56
2017-08-19T08:31:12.260Z,1008.51
2017-08-19T08:32:12.249Z,1008.58
2017-08-19T08:33:12.229Z,1008.61
2017-08-19T08:34:12.219Z,1008.58
2017-08-19T08:35:12.202Z,1008.56
2017-08-19T08:36:12.185Z,1008.59
2017-08-19T08:37:12.168Z,1008.54
2017-08-19T08:38:12.161Z,1008.55
2017-08-19T08:39:12.145Z,1008.66
2017-08-19T08:40:12.120Z,1008.69
2017-08-19T08:41:12.108Z,1008.68
2017-08-19T08:42:12.091Z,1008.65
2017-08-19T08:43:12.071Z,1008.64
2017-08-19T08:44:12.065Z,1008.72
2017-08-19T08:45:12.043Z,1008.61
2017-08-19T08:46:12.032Z,1008.64
2017-08-19T08:47:12.013Z,1008.69
2017-08-19T08:48:11.990Z,1008.66
2017-08-19T08:49:11.991Z,1008.65
2017-08-19T08:50:11.968Z,1008.74
2017-08-19T08:51:11.944Z,1008.68
2017-08-19T08:52:11.985Z,1008.71
2017-08-19T08:53:11.908Z,1008.67
2017-08-19T08:54:11.997Z,1008.67
2017-08-19T08:55:11.879Z,1008.69
2017-08-19T08:56:11.863Z,1008.66
2017-08-19T08:57:11.850Z,1008.66
2017-08-19T08:58:11.831Z,1008.67
2017-08-19T08:59:11.816Z,1008.71
2017-08-19T09:00:11.847Z,1008.67
2017-08-19T09:01:11.781Z,1008.61
2017-08-19T09:02:11.770Z,1008.71
2017-08-19T09:03:11.749Z,1008.7
2017-08-19T09:04:11.783Z,1008.58
2017-08-19T09:05:11.721Z,1008.64
2017-08-19T09:06:11.706Z,1008.63
2017-08-19T09:07:11.693Z,1008.75
2017-08-19T09:08:11.695Z,1008.67
2017-08-19T09:09:11.658Z,1008.62
2017-08-19T09:10:11.642Z,1008.68
2017-08-19T09:11:11.627Z,1008.76
2017-08-19T09:12:11.620Z,1008.69
2017-08-19T09:13:11.608Z,1008.67
2017-08-19T09:14:11.640Z,1008.79
2017-08-19T09:15:11.568Z,1008.67
2017-08-19T09:16:11.560Z,1008.69
2017-08-19T09:17:11.543Z,1008.7
2017-08-19T09:18:11.530Z,1008.68
2017-08-19T09:19:11.512Z,1008.7
2017-08-19T09:20:11.501Z,1008.69
2017-08-19T09:21:11.487Z,1008.73
2017-08-19T09:22:11.468Z,1008.77
2017-08-19T09:23:11.461Z,1008.73
2017-08-19T09:24:11.440Z,1008.81
2017-08-19T09:25:11.429Z,1008.99
2017-08-19T09:26:11.409Z,1008.67
2017-08-19T09:27:11.397Z,1008.73
2017-08-19T09:28:11.382Z,1008.78
2017-08-19T09:29:11.376Z,1008.89
2017-08-19T09:30:11.360Z,1008.86
2017-08-19T09:31:11.346Z,1008.77
2017-08-19T09:32:11.329Z,1008.76
2017-08-19T09:33:11.311Z,1008.82
2017-08-19T09:34:11.301Z,1008.8
2017-08-19T09:35:11.283Z,1008.83
2017-08-19T09:36:11.271Z,1008.78
2017-08-19T09:37:11.249Z,1008.75
2017-08-19T09:38:11.246Z,1008.73
2017-08-19T09:39:11.221Z,1008.72
2017-08-19T09:40:11.204Z,1008.77
2017-08-19T09:41:11.189Z,1008.72
2017-08-19T09:42:11.182Z,1008.74
2017-08-19T09:43:11.159Z,1008.76
2017-08-19T09:44:11.143Z,1008.78
2017-08-19T09:45:11.132Z,1008.72
2017-08-19T09:46:11.119Z,1008.8
2017-08-19T09:47:11.097Z,1008.72
2017-08-19T09:48:11.078Z,1008.79
2017-08-19T09:49:11.069Z,1008.76
2017-08-19T09:50:11.053Z,1008.91
2017-08-19T09:51:11.039Z,1008.89
2017-08-19T09:52:11.020Z,1008.89
2017-08-19T09:53:11.009Z,1008.87
2017-08-19T09:54:10.991Z,1008.81
2017-08-19T09:55:10.980Z,1008.8
2017-08-19T09:56:10.960Z,1008.86
2017-08-19T09:57:10.952Z,1008.94
2017-08-19T09:58:10.929Z,1008.9
2017-08-19T09:59:10.914Z,1008.87
2017-08-19T10:00:10.911Z,1009.02
2017-08-19T10:01:10.891Z,1008.92
2017-08-19T10:02:10.882Z,1009.03
2017-08-19T10:03:10.860Z,1009
2017-08-19T10:04:10.860Z,1008.96
2017-08-19T10:05:10.835Z,1009
2017-08-19T10:06:10.820Z,1009.09
2017-08-19T10:07:10.808Z,1009.07
2017-08-19T10:08:10.790Z,1009.11
2017-08-19T10:09:10.790Z,1009.05
2017-08-19T10:10:10.767Z,1009.11
2017-08-19T10:11:10.759Z,1009.02
2017-08-19T10:12:10.742Z,1009.02
2017-08-19T10:13:10.740Z,1009.09
2017-08-19T10:14:10.714Z,1009.08
2017-08-19T10:15:10.710Z,1009.1
2017-08-19T10:16:10.689Z,1009.07
2017-08-19T10:17:10.681Z,1009.07
2017-08-19T10:18:10.672Z,1009.13
2017-08-19T10:19:10.654Z,1009.08
2017-08-19T10:20:10.640Z,1009.12
2017-08-19T10:21:10.625Z,1009.18
2017-08-19T10:22:10.618Z,1009.21
2017-08-19T10:23:10.621Z,1009.22
2017-08-19T10:24:10.597Z,1009.26
2017-08-19T10:25:10.582Z,1009.16
2017-08-19T10:26:10.571Z,1009.2
2017-08-19T10:27:10.562Z,1009.26
2017-08-19T10:28:10.547Z,1009.15
2017-08-19T10:29:10.529Z,1009.19
2017-08-19T10:30:10.519Z,1009.15
2017-08-19T10:31:10.504Z,1009.21
2017-08-19T10:32:10.502Z,1009.18
2017-08-19T10:33:10.477Z,1009.17
2017-08-19T10:34:10.472Z,1009.14
2017-08-19T10:35:10.456Z,1009.2
2017-08-19T10:36:10.444Z,1009.09
2017-08-19T10:37:10.430Z,1009.12
2017-08-19T10:38:10.420Z,1009.12
2017-08-19T10:39:10.411Z,1009.04
2017-08-19T10:40:10.405Z,1009.11
2017-08-19T10:41:10.383Z,1009.12
2017-08-19T10:42:10.369Z,1009.16
2017-08-19T10:43:10.360Z,1009.15
2017-08-19T10:44:10.350Z,1009.16
2017-08-19T10:45:10.338Z,1009.19
2017-08-19T10:46:10.322Z,1009.22
2017-08-19T10:47:10.310Z,1009.14
2017-08-19T10:48:10.301Z,1009.12
2017-08-19T10:49:10.290Z,1009.13
2017-08-19T10:50:10.277Z,1009.09
2017-08-19T10:51:10.271Z,1009.09
2017-08-19T10:52:10.248Z,1009.12
2017-08-19T10:53:10.245Z,1009.1
2017-08-19T10:54:10.230Z,1009.14
2017-08-19T10:55:10.218Z,1009.11
2017-08-19T10:56:10.209Z,1009.14
2017-08-19T10:57:10.190Z,1009.14
2017-08-19T10:58:10.186Z,1009.09
2017-08-19T10:59:10.170Z,1009.13
2017-08-19T11:00:10.156Z,1009.09
2017-08-19T11:01:10.151Z,1009.06
2017-08-19T11:02:10.138Z,1009.09
2017-08-19T11:03:10.120Z,1009.09
2017-08-19T11:04:10.112Z,1009.04
2017-08-19T11:05:10.099Z,1008.98
2017-08-19T11:06:10.086Z,1009.06
2017-08-19T11:07:10.077Z,1009.01
2017-08-19T11:08:10.061Z,1008.99
2017-08-19T11:09:10.060Z,1008.95
2017-08-19T11:10:10.042Z,1008.9
2017-08-19T11:11:10.031Z,1009.1
2017-08-19T11:12:10.021Z,1009.1
2017-08-19T11:13:10.010Z,1009.09
2017-08-19T11:14:09.999Z,1009.08
2017-08-19T11:15:10.000Z,1009.08
2017-08-19T11:16:09.981Z,1009.15
2017-08-19T11:17:09.969Z,1009.15
2017-08-19T11:18:09.949Z,1009.21
2017-08-19T11:19:09.952Z,1009.18
2017-08-19T11:20:09.941Z,1009.14
2017-08-19T11:21:09.931Z,1009.28
2017-08-19T11:22:09.907Z,1009.31
2017-08-19T11:23:09.900Z,1009.33
2017-08-19T11:24:09.894Z,1009.26
2017-08-19T11:25:09.873Z,1009.22
2017-08-19T11:26:09.868Z,1009.32
2017-08-19T11:27:09.851Z,1009.27
2017-08-19T11:28:09.838Z,1009.3
2017-08-19T11:29:09.835Z,1009.44
2017-08-19T11:30:09.871Z,1009.33
2017-08-19T11:31:09.806Z,1009.31
2017-08-19T11:32:09.796Z,1009.33
2017-08-19T11:33:09.782Z,1009.38
2017-08-19T11:34:09.871Z,1009.37
2017-08-19T11:35:09.761Z,1009.44
2017-08-19T11:36:09.748Z,1009.49
2017-08-19T11:37:09.731Z,1009.45
2017-08-19T11:38:09.747Z,1009.52
2017-08-19T11:39:09.710Z,1009.47
2017-08-19T11:40:09.702Z,1009.47
2017-08-19T11:41:09.694Z,1009.51
2017-08-19T11:42:09.682Z,1009.48
2017-08-19T11:43:09.682Z,1009.45
2017-08-19T11:44:09.660Z,1009.44
2017-08-19T11:45:09.641Z,1009.5
2017-08-19T11:46:09.631Z,1009.38
2017-08-19T11:47:09.625Z,1009.38
2017-08-19T11:48:09.625Z,1009.44
2017-08-19T11:49:09.596Z,1009.43
2017-08-19T11:50:09.585Z,1009.5
2017-08-19T11:51:09.581Z,1009.52
2017-08-19T11:52:09.562Z,1009.5
2017-08-19T11:53:09.552Z,1009.45
2017-08-19T11:54:09.545Z,1009.49
2017-08-19T11:55:09.528Z,1009.52
2017-08-19T11:56:09.517Z,1009.63
2017-08-19T11:57:09.504Z,1009.59
2017-08-19T11:58:09.490Z,1009.52
2017-08-19T11:59:09.480Z,1009.56
2017-08-19T12:00:09.468Z,1009.49
2017-08-19T12:01:09.463Z,1009.62
2017-08-19T12:02:09.449Z,1009.62
2017-08-19T12:03:09.437Z,1009.63
2017-08-19T12:04:09.428Z,1009.65
2017-08-19T12:05:09.412Z,1009.62
2017-08-19T12:06:09.412Z,1009.61
2017-08-19T12:07:09.394Z,1009.54
2017-08-19T12:08:09.384Z,1009.54